sensor_id;sensor_type;location;lat;lon;timestamp;P1;P4;P2;P0;N10;N4;N25;N1;N05;TS
71522;SPS30;59343;51.102;5.884;2023-07-30T00:01:33;2.36;2.36;2.36;2.23;17.82;17.82;17.82;17.79;15.71;0.47
71522;SPS30;59343;51.102;5.884;2023-07-30T00:04:02;2.20;2.20;2.20;2.08;16.58;16.58;16.57;16.55;14.61;0.47
71522;SPS30;59343;51.102;5.884;2023-07-30T00:06:28;2.18;2.18;2.18;2.06;16.44;16.44;16.44;16.41;14.49;0.48
71522;SPS30;59343;51.102;5.884;2023-07-30T00:08:54;2.21;2.21;2.21;2.08;16.61;16.61;16.60;16.57;14.62;0.49
71522;SPS30;59343;51.102;5.884;2023-07-30T00:11:22;2.21;2.21;2.20;2.08;16.58;16.57;16.57;16.54;14.59;0.47
71522;SPS30;59343;51.102;5.884;2023-07-30T00:13:51;2.06;2.06;2.06;1.94;15.52;15.52;15.52;15.49;13.68;0.46
71522;SPS30;59343;51.102;5.884;2023-07-30T00:16:22;2.25;2.25;2.25;2.12;16.96;16.95;16.95;16.92;14.94;0.47
71522;SPS30;59343;51.102;5.884;2023-07-30T00:18:55;2.22;2.22;2.22;2.10;16.75;16.74;16.74;16.71;14.76;0.47
71522;SPS30;59343;51.102;5.884;2023-07-30T00:21:24;2.36;2.35;2.34;2.21;17.63;17.63;17.62;17.59;15.51;0.49
71522;SPS30;59343;51.102;5.884;2023-07-30T00:23:50;2.30;2.30;2.30;2.17;17.34;17.33;17.33;17.30;15.27;0.47
71522;SPS30;59343;51.102;5.884;2023-07-30T00:26:17;2.18;2.18;2.18;2.07;16.50;16.49;16.49;16.46;14.54;0.46
71522;SPS30;59343;51.102;5.884;2023-07-30T00:28:50;2.33;2.33;2.32;2.19;17.50;17.50;17.49;17.46;15.40;0.48
71522;SPS30;59343;51.102;5.884;2023-07-30T00:31:16;2.17;2.17;2.16;2.04;16.32;16.32;16.31;16.28;14.37;0.49
71522;SPS30;59343;51.102;5.884;2023-07-30T00:33:50;2.21;2.20;2.20;2.07;16.52;16.52;16.52;16.48;14.54;0.50
71522;SPS30;59343;51.102;5.884;2023-07-30T00:36:19;2.43;2.42;2.42;2.28;18.22;18.21;18.21;18.17;16.03;0.49
71522;SPS30;59343;51.102;5.884;2023-07-30T00:38:48;2.46;2.46;2.46;2.33;18.59;18.59;18.59;18.56;16.38;0.46
71522;SPS30;59343;51.102;5.884;2023-07-30T00:41:24;2.28;2.28;2.28;2.16;17.21;17.21;17.21;17.18;15.16;0.48
71522;SPS30;59343;51.102;5.884;2023-07-30T00:43:53;2.41;2.40;2.39;2.25;17.99;17.99;17.98;17.94;15.82;0.49
71522;SPS30;59343;51.102;5.884;2023-07-30T00:46:41;2.39;2.38;2.35;2.20;17.56;17.55;17.54;17.49;15.39;0.50
71522;SPS30;59343;51.102;5.884;2023-07-30T00:49:08;2.39;2.38;2.37;2.22;17.74;17.74;17.73;17.69;15.59;0.50
71522;SPS30;59343;51.102;5.884;2023-07-30T00:51:39;2.29;2.29;2.29;2.16;17.28;17.27;17.27;17.24;15.22;0.48
71522;SPS30;59343;51.102;5.884;2023-07-30T00:54:23;2.33;2.33;2.33;2.21;17.63;17.62;17.62;17.59;15.53;0.48
71522;SPS30;59343;51.102;5.884;2023-07-30T00:57:06;2.36;2.35;2.33;2.17;17.34;17.34;17.33;17.28;15.20;0.49
71522;SPS30;59343;51.102;5.884;2023-07-30T00:59:45;2.50;2.49;2.46;2.30;18.34;18.34;18.33;18.27;16.07;0.50
71522;SPS30;59343;51.102;5.884;2023-07-30T01:02:16;2.52;2.51;2.49;2.32;18.55;18.55;18.54;18.48;16.26;0.50
71522;SPS30;59343;51.102;5.884;2023-07-30T01:04:46;2.12;2.12;2.12;2.01;16.01;16.01;16.00;15.98;14.11;0.47
71522;SPS30;59343;51.102;5.884;2023-07-30T01:07:35;2.63;2.61;2.59;2.42;19.30;19.30;19.29;19.23;16.92;0.49
71522;SPS30;59343;51.102;5.884;2023-07-30T01:10:12;2.46;2.44;2.40;2.23;17.79;17.79;17.78;17.71;15.55;0.50
71522;SPS30;59343;51.102;5.884;2023-07-30T01:12:44;2.44;2.43;2.42;2.27;18.09;18.09;18.08;18.03;15.88;0.49
71522;SPS30;59343;51.102;5.884;2023-07-30T01:15:17;2.42;2.40;2.36;2.18;17.39;17.39;17.37;17.29;15.17;0.49
71522;SPS30;59343;51.102;5.884;2023-07-30T01:17:45;2.44;2.43;2.40;2.25;17.94;17.94;17.93;17.88;15.73;0.49
71522;SPS30;59343;51.102;5.884;2023-07-30T01:20:14;2.38;2.38;2.38;2.25;17.93;17.93;17.92;17.90;15.79;0.47
71522;SPS30;59343;51.102;5.884;2023-07-30T01:22:44;2.42;2.42;2.42;2.29;18.31;18.30;18.30;18.27;16.13;0.47
71522;SPS30;59343;51.102;5.884;2023-07-30T01:25:11;2.30;2.30;2.30;2.17;17.33;17.33;17.33;17.30;15.27;0.48
71522;SPS30;59343;51.102;5.884;2023-07-30T01:27:40;2.36;2.36;2.35;2.22;17.69;17.68;17.68;17.64;15.56;0.49
71522;SPS30;59343;51.102;5.884;2023-07-30T01:30:28;2.54;2.51;2.46;2.27;18.15;18.14;18.12;18.04;15.82;0.50
71522;SPS30;59343;51.102;5.884;2023-07-30T01:33:07;2.43;2.43;2.42;2.29;18.25;18.25;18.24;18.21;16.06;0.48
71522;SPS30;59343;51.102;5.884;2023-07-30T01:35:38;2.45;2.45;2.45;2.32;18.53;18.53;18.53;18.50;16.33;0.47
71522;SPS30;59343;51.102;5.884;2023-07-30T01:38:10;2.38;2.37;2.37;2.24;17.85;17.85;17.84;17.81;15.71;0.48
71522;SPS30;59343;51.102;5.884;2023-07-30T01:40:43;2.40;2.40;2.40;2.27;18.15;18.15;18.14;18.12;15.99;0.47
71522;SPS30;59343;51.102;5.884;2023-07-30T01:43:12;2.44;2.44;2.44;2.31;18.43;18.42;18.42;18.39;16.24;0.46
71522;SPS30;59343;51.102;5.884;2023-07-30T01:45:41;2.60;2.60;2.60;2.46;19.64;19.64;19.63;19.60;17.31;0.47
71522;SPS30;59343;51.102;5.884;2023-07-30T01:48:09;2.43;2.43;2.43;2.29;18.32;18.31;18.31;18.28;16.14;0.46
71522;SPS30;59343;51.102;5.884;2023-07-30T01:50:36;2.47;2.47;2.47;2.33;18.64;18.64;18.63;18.61;16.43;0.47
71522;SPS30;59343;51.102;5.884;2023-07-30T01:53:02;2.26;2.26;2.26;2.14;17.09;17.09;17.09;17.06;15.06;0.47
71522;SPS30;59343;51.102;5.884;2023-07-30T01:55:29;2.42;2.42;2.42;2.28;18.24;18.23;18.23;18.20;16.06;0.48
71522;SPS30;59343;51.102;5.884;2023-07-30T01:58:05;2.50;2.50;2.49;2.36;18.81;18.81;18.80;18.77;16.57;0.48
71522;SPS30;59343;51.102;5.884;2023-07-30T02:00:34;2.58;2.57;2.55;2.38;19.03;19.02;19.01;18.96;16.69;0.49
71522;SPS30;59343;51.102;5.884;2023-07-30T02:03:11;2.47;2.46;2.44;2.28;18.22;18.22;18.21;18.16;15.99;0.49
71522;SPS30;59343;51.102;5.884;2023-07-30T02:05:41;2.74;2.72;2.69;2.50;19.98;19.97;19.96;19.89;17.49;0.50
71522;SPS30;59343;51.102;5.884;2023-07-30T02:08:09;2.62;2.60;2.58;2.41;19.24;19.23;19.22;19.16;16.87;0.49
71522;SPS30;59343;51.102;5.884;2023-07-30T02:10:39;2.49;2.49;2.49;2.36;18.82;18.82;18.82;18.79;16.59;0.48
71522;SPS30;59343;51.102;5.884;2023-07-30T02:13:06;2.70;2.69;2.66;2.49;19.85;19.85;19.84;19.78;17.40;0.50
71522;SPS30;59343;51.102;5.884;2023-07-30T02:15:39;2.43;2.43;2.42;2.27;18.13;18.13;18.12;18.08;15.94;0.48
71522;SPS30;59343;51.102;5.884;2023-07-30T02:18:10;2.58;2.55;2.50;2.31;18.47;18.46;18.45;18.36;16.11;0.50
71522;SPS30;59343;51.102;5.884;2023-07-30T02:20:40;2.56;2.53;2.47;2.28;18.20;18.19;18.18;18.08;15.85;0.51
71522;SPS30;59343;51.102;5.884;2023-07-30T02:23:08;2.66;2.64;2.60;2.41;19.22;19.21;19.20;19.11;16.78;0.50
71522;SPS30;59343;51.102;5.884;2023-07-30T02:25:42;2.53;2.50;2.44;2.25;17.95;17.94;17.93;17.83;15.63;0.51
71522;SPS30;59343;51.102;5.884;2023-07-30T02:28:14;2.57;2.54;2.49;2.28;18.25;18.24;18.22;18.12;15.88;0.51
71522;SPS30;59343;51.102;5.884;2023-07-30T02:30:46;2.60;2.58;2.54;2.36;18.81;18.81;18.80;18.72;16.44;0.49
71522;SPS30;59343;51.102;5.884;2023-07-30T02:33:18;2.43;2.43;2.43;2.30;18.34;18.34;18.34;18.31;16.16;0.48
71522;SPS30;59343;51.102;5.884;2023-07-30T02:35:45;2.60;2.58;2.54;2.36;18.87;18.86;18.85;18.77;16.50;0.49
71522;SPS30;59343;51.102;5.884;2023-07-30T02:38:12;2.55;2.55;2.54;2.39;19.06;19.06;19.05;19.01;16.77;0.48
71522;SPS30;59343;51.102;5.884;2023-07-30T02:40:56;2.70;2.70;2.70;2.55;20.35;20.35;20.35;20.31;17.93;0.47
71522;SPS30;59343;51.102;5.884;2023-07-30T02:43:42;2.81;2.79;2.74;2.54;20.29;20.28;20.27;20.18;17.72;0.49
71522;SPS30;59343;51.102;5.884;2023-07-30T02:46:16;2.63;2.61;2.58;2.40;19.17;19.17;19.16;19.09;16.78;0.49
71522;SPS30;59343;51.102;5.884;2023-07-30T02:48:48;2.49;2.47;2.42;2.24;17.89;17.89;17.87;17.79;15.61;0.50
71522;SPS30;59343;51.102;5.884;2023-07-30T02:51:26;2.67;2.64;2.58;2.36;18.88;18.87;18.85;18.74;16.41;0.50
71522;SPS30;59343;51.102;5.884;2023-07-30T02:54:14;2.67;2.62;2.54;2.31;18.41;18.41;18.38;18.25;15.93;0.53
71522;SPS30;59343;51.102;5.884;2023-07-30T02:56:47;2.90;2.84;2.72;2.44;19.46;19.45;19.42;19.24;16.73;0.53
71522;SPS30;59343;51.102;5.884;2023-07-30T02:59:59;2.82;2.75;2.63;2.34;18.69;18.68;18.65;18.46;16.03;0.51
71522;SPS30;59343;51.102;5.884;2023-07-30T03:02:26;2.75;2.68;2.54;2.24;17.93;17.92;17.88;17.68;15.32;0.52
71522;SPS30;59343;51.102;5.884;2023-07-30T03:05:07;2.74;2.68;2.55;2.27;18.15;18.15;18.11;17.93;15.56;0.53
71522;SPS30;59343;51.102;5.884;2023-07-30T03:07:41;2.75;2.69;2.58;2.31;18.45;18.44;18.41;18.25;15.87;0.52
71522;SPS30;59343;51.102;5.884;2023-07-30T03:10:11;2.55;2.50;2.40;2.16;17.23;17.22;17.19;17.05;14.84;0.52
71522;SPS30;59343;51.102;5.884;2023-07-30T03:12:38;2.65;2.60;2.51;2.26;18.07;18.06;18.04;17.89;15.59;0.51
71522;SPS30;59343;51.102;5.884;2023-07-30T03:15:11;2.82;2.76;2.66;2.40;19.18;19.17;19.14;18.98;16.54;0.50
71522;SPS30;59343;51.102;5.884;2023-07-30T03:17:38;2.40;2.35;2.26;2.03;16.18;16.17;16.15;16.01;13.93;0.53
71522;SPS30;59343;51.102;5.884;2023-07-30T03:20:08;2.67;2.62;2.51;2.25;18.00;17.99;17.96;17.80;15.49;0.52
71522;SPS30;59343;51.102;5.884;2023-07-30T03:22:41;2.85;2.77;2.62;2.31;18.44;18.43;18.39;18.18;15.73;0.54
71522;SPS30;59343;51.102;5.884;2023-07-30T03:25:08;2.80;2.72;2.57;2.26;18.03;18.02;17.98;17.76;15.36;0.53
71522;SPS30;59343;51.102;5.884;2023-07-30T03:27:38;2.96;2.87;2.70;2.36;18.82;18.81;18.77;18.53;15.99;0.52
71522;SPS30;59343;51.102;5.884;2023-07-30T03:30:07;2.82;2.74;2.58;2.26;18.05;18.04;18.00;17.78;15.36;0.51
71522;SPS30;59343;51.102;5.884;2023-07-30T03:32:36;2.91;2.83;2.67;2.34;18.70;18.69;18.65;18.43;15.93;0.54
71522;SPS30;59343;51.102;5.884;2023-07-30T03:35:06;2.82;2.74;2.58;2.26;18.06;18.05;18.01;17.79;15.37;0.55
71522;SPS30;59343;51.102;5.884;2023-07-30T03:37:34;3.05;2.96;2.76;2.40;19.14;19.13;19.09;18.82;16.20;0.57
71522;SPS30;59343;51.102;5.884;2023-07-30T03:40:06;2.75;2.65;2.47;2.13;17.01;17.00;16.95;16.70;14.35;0.56
71522;SPS30;59343;51.102;5.884;2023-07-30T03:42:33;2.79;2.70;2.53;2.20;17.56;17.55;17.51;17.27;14.88;0.55
71522;SPS30;59343;51.102;5.884;2023-07-30T03:45:13;2.79;2.71;2.57;2.26;18.04;18.03;17.99;17.78;15.38;0.54
71522;SPS30;59343;51.102;5.884;2023-07-30T03:47:42;2.74;2.67;2.53;2.24;17.89;17.88;17.85;17.65;15.30;0.55
71522;SPS30;59343;51.102;5.884;2023-07-30T03:50:11;2.49;2.45;2.36;2.13;16.98;16.97;16.95;16.81;14.64;0.51
71522;SPS30;59343;51.102;5.884;2023-07-30T03:52:44;2.62;2.58;2.51;2.28;18.21;18.21;18.19;18.06;15.78;0.49
71522;SPS30;59343;51.102;5.884;2023-07-30T03:55:18;2.68;2.63;2.52;2.27;18.11;18.10;18.07;17.92;15.59;0.51
71522;SPS30;59343;51.102;5.884;2023-07-30T03:57:47;2.64;2.57;2.43;2.13;17.02;17.01;16.97;16.77;14.50;0.53
71522;SPS30;59343;51.102;5.884;2023-07-30T04:00:26;2.51;2.42;2.26;1.95;15.59;15.58;15.54;15.32;13.18;0.54
71522;SPS30;59343;51.102;5.884;2023-07-30T04:03:15;2.45;2.37;2.22;1.92;15.38;15.37;15.33;15.12;13.02;0.55
71522;SPS30;59343;51.102;5.884;2023-07-30T04:06:01;2.21;2.14;2.00;1.74;13.87;13.86;13.83;13.63;11.74;0.56
71522;SPS30;59343;51.102;5.884;2023-07-30T04:08:43;2.29;2.21;2.05;1.76;14.09;14.08;14.04;13.82;11.87;0.57
71522;SPS30;59343;51.102;5.884;2023-07-30T04:11:17;2.45;2.35;2.16;1.82;14.54;14.53;14.48;14.22;12.14;0.59
71522;SPS30;59343;51.102;5.884;2023-07-30T04:14:15;2.27;2.16;1.95;1.60;12.81;12.80;12.75;12.47;10.56;0.59
71522;SPS30;59343;51.102;5.884;2023-07-30T04:16:46;2.11;2.01;1.80;1.47;11.79;11.78;11.73;11.46;9.69;0.59
71522;SPS30;59343;51.102;5.884;2023-07-30T04:19:40;1.97;1.87;1.68;1.36;10.92;10.91;10.86;10.60;8.95;0.62
71522;SPS30;59343;51.102;5.884;2023-07-30T04:26:23;2.08;1.96;1.71;1.33;10.63;10.62;10.56;10.24;8.51;0.65
71522;SPS30;59343;51.102;5.884;2023-07-30T04:29:08;1.95;1.83;1.59;1.23;9.82;9.81;9.76;9.44;7.83;0.63
71522;SPS30;59343;51.102;5.884;2023-07-30T04:31:43;2.11;1.98;1.74;1.36;10.90;10.89;10.84;10.52;8.76;0.61
71522;SPS30;59343;51.102;5.884;2023-07-30T04:34:13;1.89;1.78;1.57;1.25;9.97;9.96;9.91;9.63;8.05;0.60
71522;SPS30;59343;51.102;5.884;2023-07-30T04:36:51;1.99;1.87;1.62;1.26;10.09;10.08;10.02;9.71;8.06;0.61
71522;SPS30;59343;51.102;5.884;2023-07-30T04:39:21;1.85;1.74;1.52;1.18;9.45;9.44;9.39;9.10;7.56;0.61
71522;SPS30;59343;51.102;5.884;2023-07-30T04:41:47;1.88;1.77;1.56;1.24;9.96;9.95;9.90;9.63;8.06;0.61
71522;SPS30;59343;51.102;5.884;2023-07-30T04:47:47;1.97;1.85;1.61;1.25;9.99;9.97;9.92;9.60;7.97;0.63
71522;SPS30;59343;51.102;5.884;2023-07-30T04:50:25;2.12;1.98;1.71;1.31;10.46;10.45;10.38;10.03;8.27;0.65
71522;SPS30;59343;51.102;5.884;2023-07-30T04:52:52;1.77;1.65;1.41;1.07;8.55;8.54;8.49;8.18;6.73;0.66
71522;SPS30;59343;51.102;5.884;2023-07-30T04:55:26;1.77;1.65;1.43;1.09;8.76;8.75;8.70;8.41;6.95;0.65
71522;SPS30;59343;51.102;5.884;2023-07-30T04:57:56;1.77;1.65;1.42;1.08;8.68;8.67;8.62;8.32;6.86;0.65
71522;SPS30;59343;51.102;5.884;2023-07-30T05:00:28;1.90;1.77;1.52;1.15;9.22;9.21;9.15;8.83;7.26;0.66
71522;SPS30;59343;51.102;5.884;2023-07-30T05:02:56;1.95;1.82;1.56;1.19;9.49;9.47;9.42;9.08;7.47;0.66
71522;SPS30;59343;51.102;5.884;2023-07-30T05:05:24;1.87;1.74;1.47;1.09;8.70;8.68;8.62;8.28;6.74;0.68
71522;SPS30;59343;51.102;5.884;2023-07-30T05:07:53;1.79;1.65;1.40;1.03;8.22;8.21;8.15;7.81;6.35;0.66
71522;SPS30;59343;51.102;5.884;2023-07-30T05:10:28;1.72;1.59;1.35;0.99;7.96;7.95;7.89;7.57;6.17;0.66
71522;SPS30;59343;51.102;5.884;2023-07-30T05:13:01;1.88;1.74;1.47;1.08;8.61;8.60;8.54;8.18;6.64;0.67
71522;SPS30;59343;51.102;5.884;2023-07-30T05:15:34;1.64;1.52;1.28;0.93;7.47;7.46;7.40;7.09;5.75;0.68
71522;SPS30;59343;51.102;5.884;2023-07-30T05:18:02;1.79;1.66;1.40;1.03;8.21;8.20;8.14;7.80;6.33;0.66
71522;SPS30;59343;51.102;5.884;2023-07-30T05:20:32;1.93;1.80;1.53;1.14;9.14;9.13;9.07;8.72;7.13;0.65
71522;SPS30;59343;51.102;5.884;2023-07-30T05:22:59;1.98;1.85;1.59;1.21;9.72;9.71;9.65;9.32;7.68;0.64
71522;SPS30;59343;51.102;5.884;2023-07-30T05:25:31;1.94;1.80;1.54;1.16;9.25;9.24;9.18;8.84;7.25;0.66
71522;SPS30;59343;51.102;5.884;2023-07-30T05:27:58;1.85;1.72;1.47;1.10;8.80;8.79;8.73;8.41;6.89;0.66
71522;SPS30;59343;51.102;5.884;2023-07-30T05:30:24;2.08;1.93;1.65;1.24;9.94;9.93;9.87;9.50;7.79;0.66
71522;SPS30;59343;51.102;5.884;2023-07-30T05:32:51;1.99;1.85;1.56;1.15;9.22;9.20;9.14;8.77;7.13;0.67
71522;SPS30;59343;51.102;5.884;2023-07-30T05:35:18;2.14;1.98;1.65;1.19;9.53;9.51;9.44;9.02;7.27;0.68
71522;SPS30;59343;51.102;5.884;2023-07-30T05:37:47;2.18;2.01;1.67;1.19;9.56;9.54;9.47;9.03;7.26;0.68
71522;SPS30;59343;51.102;5.884;2023-07-30T05:40:16;2.19;2.01;1.67;1.18;9.48;9.47;9.39;8.95;7.16;0.69
71522;SPS30;59343;51.102;5.884;2023-07-30T05:42:47;2.20;2.03;1.70;1.22;9.78;9.77;9.69;9.26;7.46;0.68
71522;SPS30;59343;51.102;5.884;2023-07-30T05:45:20;2.07;1.91;1.59;1.14;9.10;9.09;9.02;8.60;6.91;0.67
71522;SPS30;59343;51.102;5.884;2023-07-30T05:47:49;2.09;1.93;1.62;1.18;9.43;9.41;9.34;8.94;7.23;0.66
71522;SPS30;59343;51.102;5.884;2023-07-30T05:50:21;2.01;1.86;1.58;1.17;9.33;9.32;9.25;8.88;7.24;0.66
71522;SPS30;59343;51.102;5.884;2023-07-30T05:52:48;2.14;1.98;1.68;1.24;9.92;9.91;9.84;9.45;7.69;0.66
71522;SPS30;59343;51.102;5.884;2023-07-30T05:55:14;2.00;1.84;1.54;1.10;8.84;8.83;8.76;8.36;6.73;0.66
71522;SPS30;59343;51.102;5.884;2023-07-30T05:57:40;2.10;1.94;1.62;1.18;9.43;9.41;9.34;8.94;7.22;0.65
71522;SPS30;59343;51.102;5.884;2023-07-30T06:00:08;2.18;2.01;1.68;1.21;9.68;9.67;9.59;9.16;7.38;0.67
71522;SPS30;59343;51.102;5.884;2023-07-30T06:02:41;2.29;2.12;1.78;1.30;10.39;10.37;10.29;9.86;7.98;0.66
71522;SPS30;59343;51.102;5.884;2023-07-30T06:05:07;2.13;1.99;1.71;1.30;10.39;10.38;10.32;9.95;8.19;0.63
71522;SPS30;59343;51.102;5.884;2023-07-30T06:15:06;2.23;2.06;1.73;1.26;10.11;10.10;10.02;9.60;7.77;0.66
71522;SPS30;59343;51.102;5.884;2023-07-30T06:21:46;2.09;1.95;1.69;1.30;10.41;10.40;10.33;9.99;8.27;0.61
71522;SPS30;59343;51.102;5.884;2023-07-30T06:27:48;2.33;2.17;1.86;1.40;11.23;11.21;11.14;10.74;8.82;0.64
71522;SPS30;59343;51.102;5.884;2023-07-30T06:30:41;2.23;2.07;1.77;1.32;10.60;10.59;10.52;10.12;8.29;0.62
71522;SPS30;59343;51.102;5.884;2023-07-30T06:36:49;2.38;2.22;1.89;1.43;11.41;11.40;11.32;10.90;8.94;0.63
71522;SPS30;59343;51.102;5.884;2023-07-30T06:39:30;2.25;2.12;1.86;1.46;11.64;11.63;11.57;11.23;9.35;0.60
71522;SPS30;59343;51.102;5.884;2023-07-30T06:42:07;2.35;2.20;1.91;1.47;11.77;11.76;11.69;11.31;9.36;0.62
71522;SPS30;59343;51.102;5.884;2023-07-30T06:44:34;2.22;2.08;1.80;1.39;11.11;11.10;11.04;10.67;8.84;0.61
71522;SPS30;59343;51.102;5.884;2023-07-30T06:47:06;2.36;2.20;1.88;1.42;11.40;11.38;11.31;10.91;8.96;0.63
71522;SPS30;59343;51.102;5.884;2023-07-30T06:49:33;2.25;2.10;1.80;1.36;10.92;10.90;10.83;10.45;8.59;0.61
71522;SPS30;59343;51.102;5.884;2023-07-30T06:52:03;2.61;2.44;2.09;1.59;12.70;12.69;12.61;12.16;10.01;0.60
71522;SPS30;59343;51.102;5.884;2023-07-30T06:54:40;2.56;2.39;2.06;1.58;12.66;12.65;12.57;12.15;10.03;0.61
71522;SPS30;59343;51.102;5.884;2023-07-30T06:57:31;2.43;2.28;1.99;1.54;12.36;12.35;12.28;11.89;9.87;0.60
71522;SPS30;59343;51.102;5.884;2023-07-30T06:59:57;3.23;3.00;2.54;1.88;15.07;15.05;14.95;14.36;11.70;0.64
71522;SPS30;59343;51.102;5.884;2023-07-30T07:02:40;3.08;2.85;2.40;1.75;14.00;13.98;13.87;13.29;10.77;0.65
71522;SPS30;59343;51.102;5.884;2023-07-30T07:05:14;3.01;2.78;2.33;1.69;13.55;13.53;13.43;12.85;10.38;0.64
71522;SPS30;59343;51.102;5.884;2023-07-30T07:08:06;2.97;2.74;2.27;1.62;12.94;12.92;12.82;12.22;9.80;0.65
71522;SPS30;59343;51.102;5.884;2023-07-30T07:10:37;3.23;2.97;2.46;1.75;14.00;13.98;13.86;13.21;10.58;0.64
71522;SPS30;59343;51.102;5.884;2023-07-30T07:13:09;3.20;2.95;2.46;1.77;14.22;14.19;14.08;13.46;10.85;0.64
71522;SPS30;59343;51.102;5.884;2023-07-30T07:15:54;3.04;2.81;2.37;1.75;13.99;13.97;13.87;13.30;10.81;0.64
71522;SPS30;59343;51.102;5.884;2023-07-30T07:24:44;3.21;2.97;2.51;1.84;14.74;14.71;14.61;14.00;11.37;0.63
71522;SPS30;59343;51.102;5.884;2023-07-30T07:31:32;3.21;2.98;2.54;1.90;15.17;15.15;15.05;14.47;11.84;0.61
71522;SPS30;59343;51.102;5.884;2023-07-30T07:34:15;3.84;3.53;2.93;2.09;16.74;16.71;16.57;15.80;12.68;0.65
71522;SPS30;59343;51.102;5.884;2023-07-30T07:37:08;4.24;3.87;3.14;2.15;17.22;17.18;17.02;16.09;12.67;0.69
71522;SPS30;59343;51.102;5.884;2023-07-30T07:39:34;3.95;3.60;2.93;2.00;16.01;15.98;15.83;14.96;11.77;0.71
71522;SPS30;59343;51.102;5.884;2023-07-30T07:42:01;4.09;3.73;3.03;2.06;16.50;16.47;16.31;15.41;12.11;0.70
71522;SPS30;59343;51.102;5.884;2023-07-30T07:44:30;4.69;4.27;3.44;2.31;18.50;18.47;18.28;17.22;13.44;0.71
71522;SPS30;59343;51.102;5.884;2023-07-30T07:47:17;4.18;3.81;3.08;2.08;16.70;16.67;16.51;15.57;12.20;0.71
71522;SPS30;59343;51.102;5.884;2023-07-30T07:49:56;4.01;3.65;2.96;2.00;16.05;16.02;15.87;14.98;11.74;0.70
71522;SPS30;59343;51.102;5.884;2023-07-30T07:53:55;3.70;3.41;2.84;2.03;16.25;16.23;16.10;15.36;12.34;0.65
71522;SPS30;59343;51.102;5.884;2023-07-30T07:56:31;3.53;3.26;2.73;1.98;15.89;15.87;15.75;15.07;12.18;0.65
71522;SPS30;59343;51.102;5.884;2023-07-30T07:59:16;4.33;3.97;3.26;2.28;18.24;18.21;18.05;17.14;13.63;0.68
71522;SPS30;59343;51.102;5.884;2023-07-30T08:05:24;4.06;3.72;3.04;2.10;16.83;16.80;16.65;15.78;12.49;0.68
71522;SPS30;59343;51.102;5.884;2023-07-30T08:08:23;4.23;3.85;3.11;2.09;16.73;16.70;16.53;15.58;12.17;0.68
71522;SPS30;59343;51.102;5.884;2023-07-30T08:10:56;4.62;4.21;3.42;2.32;18.60;18.57;18.38;17.36;13.63;0.68
71522;SPS30;59343;51.102;5.884;2023-07-30T08:13:46;3.83;3.51;2.88;2.02;16.16;16.14;15.99;15.19;12.09;0.68
71522;SPS30;59343;51.102;5.884;2023-07-30T08:16:17;4.28;3.93;3.25;2.29;18.32;18.29;18.14;17.25;13.77;0.68
71522;SPS30;59343;51.102;5.884;2023-07-30T08:19:11;3.69;3.39;2.81;2.00;16.00;15.97;15.84;15.09;12.08;0.65
71522;SPS30;59343;51.102;5.884;2023-07-30T08:22:34;3.64;3.36;2.83;2.08;16.62;16.59;16.47;15.79;12.81;0.62
71522;SPS30;59343;51.102;5.884;2023-07-30T08:25:10;3.88;3.58;3.01;2.18;17.49;17.47;17.33;16.59;13.41;0.64
71522;SPS30;59343;51.102;5.884;2023-07-30T08:27:37;4.27;3.93;3.25;2.31;18.52;18.49;18.33;17.47;13.99;0.67
71522;SPS30;59343;51.102;5.884;2023-07-30T08:30:52;3.55;3.26;2.70;1.92;15.39;15.37;15.24;14.52;11.64;0.65
71522;SPS30;59343;51.102;5.884;2023-07-30T08:33:32;4.15;3.80;3.11;2.15;17.26;17.23;17.07;16.19;12.83;0.66
71522;SPS30;59343;51.102;5.884;2023-07-30T08:38:56;4.69;4.27;3.46;2.34;18.74;18.70;18.52;17.47;13.68;0.68
71522;SPS30;59343;51.102;5.884;2023-07-30T08:41:25;3.99;3.64;2.95;2.01;16.08;16.05;15.90;15.02;11.80;0.69
71522;SPS30;59343;51.102;5.884;2023-07-30T08:43:51;4.00;3.66;2.98;2.05;16.44;16.41;16.26;15.39;12.15;0.71
71522;SPS30;59343;51.102;5.884;2023-07-30T08:46:19;3.98;3.63;2.95;2.01;16.08;16.05;15.90;15.02;11.80;0.70
71522;SPS30;59343;51.102;5.884;2023-07-30T08:49:08;3.54;3.23;2.64;1.81;14.52;14.49;14.36;13.59;10.73;0.69
71522;SPS30;59343;51.102;5.884;2023-07-30T08:51:38;3.87;3.52;2.84;1.92;15.39;15.36;15.20;14.34;11.22;0.71
71522;SPS30;59343;51.102;5.884;2023-07-30T08:54:10;3.34;3.05;2.49;1.70;13.66;13.64;13.51;12.78;10.08;0.70
71522;SPS30;59343;51.102;5.884;2023-07-30T08:56:39;3.23;2.96;2.43;1.69;13.54;13.52;13.40;12.72;10.09;0.69
71522;SPS30;59343;51.102;5.884;2023-07-30T08:59:20;3.62;3.30;2.68;1.82;14.60;14.57;14.43;13.63;10.70;0.71
71522;SPS30;59343;51.102;5.884;2023-07-30T09:01:58;3.21;2.93;2.39;1.64;13.12;13.09;12.97;12.27;9.67;0.70
71522;SPS30;59343;51.102;5.884;2023-07-30T09:04:34;3.54;3.23;2.64;1.82;14.59;14.56;14.43;13.66;10.80;0.70
71522;SPS30;59343;51.102;5.884;2023-07-30T09:07:11;3.69;3.37;2.74;1.88;15.08;15.06;14.92;14.11;11.13;0.69
71522;SPS30;59343;51.102;5.884;2023-07-30T09:13:38;3.92;3.55;2.83;1.85;14.86;14.83;14.67;13.74;10.60;0.74
71522;SPS30;59343;51.102;5.884;2023-07-30T09:16:13;3.65;3.32;2.68;1.80;14.46;14.43;14.29;13.47;10.52;0.72
71522;SPS30;59343;51.102;5.884;2023-07-30T09:18:41;3.73;3.39;2.73;1.84;14.72;14.69;14.54;13.70;10.70;0.74
71522;SPS30;59343;51.102;5.884;2023-07-30T09:21:13;3.60;3.28;2.64;1.78;14.26;14.23;14.09;13.28;10.38;0.73
71522;SPS30;59343;51.102;5.884;2023-07-30T09:23:43;3.71;3.37;2.72;1.83;14.64;14.61;14.46;13.62;10.64;0.71
71522;SPS30;59343;51.102;5.884;2023-07-30T09:26:14;3.85;3.50;2.82;1.89;15.17;15.14;14.99;14.12;11.02;0.71
71522;SPS30;59343;51.102;5.884;2023-07-30T09:28:41;3.71;3.39;2.75;1.87;14.96;14.93;14.79;13.97;10.97;0.70
71522;SPS30;59343;51.102;5.884;2023-07-30T09:31:10;4.00;3.63;2.92;1.94;15.59;15.55;15.39;14.48;11.26;0.72
71522;SPS30;59343;51.102;5.884;2023-07-30T09:33:40;3.84;3.48;2.76;1.80;14.41;14.38;14.22;13.31;10.23;0.75
71522;SPS30;59343;51.102;5.884;2023-07-30T09:36:07;4.95;4.47;3.53;2.27;18.22;18.18;17.97;16.78;12.82;0.77
71522;SPS30;59343;51.102;5.884;2023-07-30T09:41:41;3.65;3.33;2.70;1.85;14.81;14.78;14.64;13.84;10.89;0.71
71522;SPS30;59343;51.102;5.884;2023-07-30T09:44:07;3.64;3.32;2.70;1.85;14.81;14.78;14.64;13.84;10.90;0.71
71522;SPS30;59343;51.102;5.884;2023-07-30T09:46:44;3.51;3.19;2.57;1.73;13.83;13.80;13.66;12.87;10.04;0.72
71522;SPS30;59343;51.102;5.884;2023-07-30T09:49:18;3.78;3.45;2.80;1.91;15.27;15.24;15.09;14.26;11.21;0.69
71522;SPS30;59343;51.102;5.884;2023-07-30T09:51:44;3.72;3.39;2.75;1.87;14.95;14.93;14.78;13.96;10.96;0.70
71522;SPS30;59343;51.102;5.884;2023-07-30T09:54:11;3.37;3.08;2.52;1.75;14.04;14.02;13.89;13.18;10.45;0.69
71522;SPS30;59343;51.102;5.884;2023-07-30T09:56:39;3.26;2.97;2.41;1.65;13.19;13.16;13.04;12.32;9.69;0.71
71522;SPS30;59343;51.102;5.884;2023-07-30T09:59:06;3.72;3.37;2.70;1.78;14.29;14.26;14.10;13.24;10.26;0.73
71522;SPS30;59343;51.102;5.884;2023-07-30T10:01:44;3.86;3.50;2.80;1.85;14.85;14.82;14.66;13.76;10.66;0.74
71522;SPS30;59343;51.102;5.884;2023-07-30T10:04:15;3.78;3.43;2.75;1.82;14.57;14.54;14.39;13.51;10.48;0.73
71522;SPS30;59343;51.102;5.884;2023-07-30T10:06:50;3.39;3.08;2.47;1.63;13.09;13.07;12.93;12.15;9.42;0.73
71522;SPS30;59343;51.102;5.884;2023-07-30T10:09:40;3.76;3.41;2.73;1.81;14.49;14.46;14.30;13.43;10.41;0.73
71522;SPS30;59343;51.102;5.884;2023-07-30T10:12:13;3.74;3.38;2.67;1.71;13.71;13.68;13.52;12.61;9.62;0.76
71522;SPS30;59343;51.102;5.884;2023-07-30T10:14:46;3.58;3.21;2.50;1.55;12.41;12.38;12.22;11.30;8.46;0.79
71522;SPS30;59343;51.102;5.884;2023-07-30T10:17:20;3.51;3.16;2.49;1.59;12.75;12.72;12.57;11.71;8.91;0.77
71522;SPS30;59343;51.102;5.884;2023-07-30T10:19:46;3.37;3.05;2.42;1.57;12.61;12.58;12.44;11.64;8.94;0.75
71522;SPS30;59343;51.102;5.884;2023-07-30T10:22:42;2.74;2.49;1.99;1.32;10.61;10.59;10.48;9.85;7.64;0.75
71522;SPS30;59343;51.102;5.884;2023-07-30T10:25:49;3.41;3.08;2.43;1.56;12.55;12.52;12.38;11.55;8.82;0.77
71522;SPS30;59343;51.102;5.884;2023-07-30T10:28:35;3.25;2.95;2.37;1.57;12.57;12.55;12.41;11.66;9.05;0.74
71522;SPS30;59343;51.102;5.884;2023-07-30T10:31:12;3.37;3.07;2.48;1.67;13.37;13.35;13.21;12.46;9.74;0.73
71522;SPS30;59343;51.102;5.884;2023-07-30T10:33:52;3.06;2.79;2.26;1.53;12.26;12.24;12.12;11.44;8.97;0.73